Terminal Aerodrome Forecast
Issued by NWS

Home | Current Version | Previous Version | Text Only | Print | Product List | Glossary On
Versions: 1 2 3 4 5 6 7 8 9 10 11 12 13 14 15 16
000
FTUS42 KFFC 181932 AAA
TAFFTY
TAF AMD
KFTY 181932Z 1820/1918 29010KT P6SM SCT050
     FM190100 00000KT P6SM FEW250
     FM191400 29004KT P6SM FEW025=

USA.gov is the U.S. government's official web portal to all federal, state and local government web resources and services.